Capitol Logistics 2292


KSDF
Louisville International Airport-Standiford Field
Louisville, Kentucky, US
KORD
Chicago O'Hare International Airport
Chicago, Illinois, US

Activity Log

Date Flight Route Aircraft Duration
11/23/2019 CPX2292 SDSHB1 SHB FWA WATSN3 B763 1h 10m
03/25/2018 CPX903 STREP3 STREP MZZ VEECK3 B744 0h 57m

Route Details

Aircraft Information
Primary: Boeing 747-400BCF
Backup: Boeing 767-300BDSF
Date Restrictions
Between:Nov 16, 2019
Dec 31, 2019
Route Data
Distance: 249nm
Sched. Duration: 0h 52m
Avg. Duration: 0h 84m (+32m)
Times Flown: 2
Recm'd Route: SDSHB1 SHB FWA WATSN3
Planned Altitude: 27,000ft
Origin Wx: KSDF 030156Z 21007KT 10SM FEW150 FEW250 27/14 A2998 RMK AO2 SLP148 T02720144
Dest. Wx: KORD 030151Z 24012KT 10SM FEW200 BKN250 31/17 A2979 RMK AO2 SLP082 T03110167 $
Notes: SEASONAL FLIGHT | UPS SURGE OPS CONTRACT

Financial History
Total Freight: 326,132lbs
Average Load: 163,066lbs/flt
Fuel Used: 42,411lbs
Avg. Fuel Used: 21,206lbs/flt
Fuel Expense: $35,566
Avg. Fuel Expense: $17,783
Avg. Fuel Cost: $0.81/lbs
Total Gross Income: $587,243
Pilot Pay: $218
Total Expenses: $68,263
Total Revenue: $482,858
Average Revenue: $293,621.58